X  Blizu METAR Podaci o vazduhoplovstvu     LIPX Verona-Villafranca Valerio Catullo Airport
Temperatura
19°C Temperatura
13°C Tačka Rose
68% Vlaga



Vetar
21 KM/S
13 MPS
6 M/S
11 Čvorovi



340°
SSZ
Trenutna situacija

Slaba Kiša Slaba Kiša
Vazdušni pritisak 1013.92 (hPa) - 29.94 (inHg)
Vidljivost 6.2 (Milje) - 10 (km)
Aerodrom
Aerodromski kod. LIPX

Lokacija: Verona-Villafranca Valerio Catullo Airport
Udaljenost: 0 (km)

Metar:
LIPX 241920Z 34011KT 9999 -RA FEW030 BKN045 19/13 Q1014

Vreme: 24-05-2023 19:20 CEST